This is the latest recevied weather packets stored in our database for station/object YBBN. If no packets are shown the sender has not sent any weather packets the latest 10 day(s).
| Time | Temp. | Humidity | Pressure | Rain* | Wind** | Luminosity | Snow |
|---|---|---|---|---|---|---|---|
| 1787763828 | 13.89° C | 76% | 1022 hPa | - | - | - | - |
| 1787763229 | 13.89° C | 76% | 1022 hPa | - | - | - | - |
| 1787762627 | 13.89° C | 76% | 1022 hPa | - | - | - | - |
| 1787762025 | 13.89° C | 71% | 1022 hPa | - | - | - | - |
| 1787761429 | 13.89° C | 71% | 1022 hPa | - | - | - | - |
| 1787760826 | 13.89° C | 71% | 1022 hPa | - | - | - | - |
| 1787760227 | - | - | 1014 hPa | - | - | - | - |
| 1787759635 | - | - | 1014 hPa | - | - | - | - |
| 1787759038 | - | - | 1014 hPa | - | - | - | - |
| 1787758432 | 16.67° C | 63% | 1022 hPa | - | - | - | - |
| 1787757835 | 16.67° C | 63% | 1022 hPa | - | - | - | - |
| 1787757231 | 16.67° C | 63% | 1022 hPa | - | - | - | - |
| 1787756626 | 17.78° C | 59% | 1021 hPa | - | - | - | - |
| 1787756028 | 17.78° C | 59% | 1021 hPa | - | - | - | - |
| 1787755429 | 17.78° C | 59% | 1021 hPa | - | - | - | - |
| 1787754828 | 16.67° C | 63% | 1021 hPa | - | - | - | - |
| 1787754228 | 16.67° C | 63% | 1021 hPa | - | - | - | - |
| 1787753629 | 16.67° C | 63% | 1021 hPa | - | - | - | - |
| 1787753028 | 15° C | 72% | 1021 hPa | - | - | - | - |
| 1787752428 | 15° C | 72% | 1021 hPa | - | - | - | - |
| 1787751828 | 15° C | 72% | 1021 hPa | - | - | - | - |
| 1787751227 | 15.56° C | 67% | 1021 hPa | - | - | - | - |
| 1787750628 | 15.56° C | 67% | 1021 hPa | - | - | - | - |
| 1787750023 | 15.56° C | 67% | 1021 hPa | - | - | - | - |
| 1787749427 | 15.56° C | 67% | 1021 hPa | - | - | - | - |
* Rain since midnight (hover to see other rain measurements)
** Current wind speed in m/s (hover to see current wind gust speed)